CheckWX is a tool to help pilots better visualize weather data.  It is not intended as a substitute for an official pre-flight weather briefing.

18:32:19 UTC

LGSY TAF
Skiros Airport
Skiros Island, Greece
TAF LGSY 221700Z 2218/2303 26010KT 9999 FEW012 SCT020 PROB30 TEMPO 2219/2303 8000 RA FEW010 BKN020 BECMG 2222/2224 SCT012 BKN020

Feb-22@
18:00 UTC

Feb-22 @ 18:00 UTC

Feb-22@
22:00 UTC

Feb-22 @ 22:00 UTC

TAF LGSY 221700Z 2218/2303 26010KT 9999 FEW012 SCT020
Wind
  • 260° at 10 KTS
Cloud Levels
  • Few at 1,200' AGL
  • Scattered at 2,000' AGL

Feb-22@
19:00 UTC

Feb-22 @ 19:00 UTC

Feb-23@
03:00 UTC

Feb-23 @ 03:00 UTC

PROB30 TEMPO 2219/2303 8000 RA FEW010 BKN020

Temporary - 30% Likelihood

Temporary - 30% Likelihood during this time.

Conditions
Rain
Cloud Levels
  • Few at 1,000' AGL
  • Broken at 2,000' AGL

Feb-22@
22:00 UTC

Feb-22 @ 22:00 UTC

Feb-23@
03:00 UTC

Feb-23 @ 03:00 UTC

BECMG 2222/2224 SCT012 BKN020

Becoming

BecomingConditions expected by Sat, Feb 23, 2019 @ 00:00 UTC

Wind
  • 260° at 10 KTS
Cloud Levels
  • Scattered at 1,200' AGL
  • Broken at 2,000' AGL